sensor_id;sensor_type;location;lat;lon;timestamp;P1;durP1;ratioP1;P2;durP2;ratioP2
15049;SDS011;7622;42.724;23.250;2022-09-21T00:01:53;1.80;;;1.70;;
15049;SDS011;7622;42.724;23.250;2022-09-21T00:04:20;1.47;;;1.37;;
15049;SDS011;7622;42.724;23.250;2022-09-21T00:06:46;1.80;;;1.70;;
15049;SDS011;7622;42.724;23.250;2022-09-21T00:09:13;1.70;;;1.60;;
15049;SDS011;7622;42.724;23.250;2022-09-21T00:11:41;1.43;;;1.43;;
15049;SDS011;7622;42.724;23.250;2022-09-21T00:14:09;1.83;;;1.73;;
15049;SDS011;7622;42.724;23.250;2022-09-21T00:16:38;1.93;;;1.77;;
15049;SDS011;7622;42.724;23.250;2022-09-21T00:19:05;2.40;;;2.30;;
15049;SDS011;7622;42.724;23.250;2022-09-21T00:21:32;3.40;;;1.90;;
15049;SDS011;7622;42.724;23.250;2022-09-21T00:23:59;2.50;;;1.67;;
15049;SDS011;7622;42.724;23.250;2022-09-21T00:26:27;2.17;;;1.97;;
15049;SDS011;7622;42.724;23.250;2022-09-21T00:28:57;2.00;;;1.90;;
15049;SDS011;7622;42.724;23.250;2022-09-21T00:31:25;2.20;;;2.00;;
15049;SDS011;7622;42.724;23.250;2022-09-21T00:33:52;2.40;;;2.30;;
15049;SDS011;7622;42.724;23.250;2022-09-21T00:36:20;1.90;;;1.80;;
15049;SDS011;7622;42.724;23.250;2022-09-21T00:38:48;2.00;;;1.90;;
15049;SDS011;7622;42.724;23.250;2022-09-21T00:41:16;2.30;;;2.10;;
15049;SDS011;7622;42.724;23.250;2022-09-21T00:43:45;1.90;;;1.80;;
15049;SDS011;7622;42.724;23.250;2022-09-21T00:46:15;1.50;;;1.50;;
15049;SDS011;7622;42.724;23.250;2022-09-21T00:48:50;2.37;;;2.00;;
15049;SDS011;7622;42.724;23.250;2022-09-21T00:51:17;2.10;;;2.00;;
15049;SDS011;7622;42.724;23.250;2022-09-21T00:53:44;2.20;;;2.10;;
15049;SDS011;7622;42.724;23.250;2022-09-21T00:56:13;2.60;;;2.40;;
15049;SDS011;7622;42.724;23.250;2022-09-21T00:58:42;3.07;;;2.03;;
15049;SDS011;7622;42.724;23.250;2022-09-21T01:01:11;2.10;;;2.00;;
15049;SDS011;7622;42.724;23.250;2022-09-21T01:03:41;1.97;;;1.87;;
15049;SDS011;7622;42.724;23.250;2022-09-21T01:06:10;2.47;;;2.27;;
15049;SDS011;7622;42.724;23.250;2022-09-21T01:08:37;2.13;;;2.00;;
15049;SDS011;7622;42.724;23.250;2022-09-21T01:11:13;2.07;;;1.97;;
15049;SDS011;7622;42.724;23.250;2022-09-21T01:13:55;2.33;;;2.23;;
15049;SDS011;7622;42.724;23.250;2022-09-21T01:16:37;2.83;;;2.63;;
15049;SDS011;7622;42.724;23.250;2022-09-21T01:19:16;2.47;;;2.27;;
15049;SDS011;7622;42.724;23.250;2022-09-21T01:21:59;3.27;;;2.50;;
15049;SDS011;7622;42.724;23.250;2022-09-21T01:24:47;5.93;;;2.60;;
15049;SDS011;7622;42.724;23.250;2022-09-21T01:27:31;2.40;;;2.30;;
15049;SDS011;7622;42.724;23.250;2022-09-21T01:30:07;2.77;;;1.90;;
15049;SDS011;7622;42.724;23.250;2022-09-21T01:32:39;3.30;;;3.10;;
15049;SDS011;7622;42.724;23.250;2022-09-21T01:35:12;2.70;;;2.60;;
15049;SDS011;7622;42.724;23.250;2022-09-21T01:37:44;2.30;;;2.20;;
15049;SDS011;7622;42.724;23.250;2022-09-21T01:40:16;4.40;;;2.63;;
15049;SDS011;7622;42.724;23.250;2022-09-21T01:42:46;2.60;;;2.40;;
15049;SDS011;7622;42.724;23.250;2022-09-21T01:45:18;2.20;;;2.00;;
15049;SDS011;7622;42.724;23.250;2022-09-21T01:47:48;2.57;;;2.20;;
15049;SDS011;7622;42.724;23.250;2022-09-21T01:50:17;2.33;;;2.23;;
15049;SDS011;7622;42.724;23.250;2022-09-21T01:52:46;2.47;;;1.90;;
15049;SDS011;7622;42.724;23.250;2022-09-21T01:55:19;2.60;;;2.40;;
15049;SDS011;7622;42.724;23.250;2022-09-21T01:57:51;2.70;;;2.50;;
15049;SDS011;7622;42.724;23.250;2022-09-21T02:00:23;3.63;;;2.00;;
15049;SDS011;7622;42.724;23.250;2022-09-21T02:02:51;3.23;;;2.50;;
15049;SDS011;7622;42.724;23.250;2022-09-21T02:05:22;3.10;;;2.20;;
15049;SDS011;7622;42.724;23.250;2022-09-21T02:07:51;2.23;;;2.13;;
15049;SDS011;7622;42.724;23.250;2022-09-21T02:10:19;2.47;;;2.33;;
15049;SDS011;7622;42.724;23.250;2022-09-21T02:12:49;2.30;;;2.20;;
15049;SDS011;7622;42.724;23.250;2022-09-21T02:15:23;3.13;;;2.33;;
15049;SDS011;7622;42.724;23.250;2022-09-21T02:18:00;2.50;;;2.37;;
15049;SDS011;7622;42.724;23.250;2022-09-21T02:20:33;2.30;;;2.20;;
15049;SDS011;7622;42.724;23.250;2022-09-21T02:23:04;3.93;;;2.50;;
15049;SDS011;7622;42.724;23.250;2022-09-21T02:25:40;5.27;;;2.57;;
15049;SDS011;7622;42.724;23.250;2022-09-21T02:28:14;2.53;;;2.30;;
15049;SDS011;7622;42.724;23.250;2022-09-21T02:30:54;2.23;;;2.10;;
15049;SDS011;7622;42.724;23.250;2022-09-21T02:33:28;3.20;;;2.20;;
15049;SDS011;7622;42.724;23.250;2022-09-21T02:36:00;2.30;;;2.20;;
15049;SDS011;7622;42.724;23.250;2022-09-21T02:38:34;7.00;;;2.80;;
15049;SDS011;7622;42.724;23.250;2022-09-21T02:41:06;5.13;;;2.63;;
15049;SDS011;7622;42.724;23.250;2022-09-21T02:43:38;2.83;;;2.47;;
15049;SDS011;7622;42.724;23.250;2022-09-21T02:46:12;2.60;;;2.43;;
15049;SDS011;7622;42.724;23.250;2022-09-21T02:48:45;2.30;;;2.20;;
15049;SDS011;7622;42.724;23.250;2022-09-21T02:51:15;4.33;;;2.10;;
15049;SDS011;7622;42.724;23.250;2022-09-21T02:53:46;2.87;;;2.67;;
15049;SDS011;7622;42.724;23.250;2022-09-21T02:56:16;2.80;;;2.30;;
15049;SDS011;7622;42.724;23.250;2022-09-21T02:58:44;3.03;;;2.43;;
15049;SDS011;7622;42.724;23.250;2022-09-21T03:01:15;2.23;;;2.13;;
15049;SDS011;7622;42.724;23.250;2022-09-21T03:03:44;3.00;;;2.30;;
15049;SDS011;7622;42.724;23.250;2022-09-21T03:06:10;3.77;;;2.20;;
15049;SDS011;7622;42.724;23.250;2022-09-21T03:08:37;2.23;;;2.13;;
15049;SDS011;7622;42.724;23.250;2022-09-21T03:11:04;2.10;;;2.00;;
15049;SDS011;7622;42.724;23.250;2022-09-21T03:13:31;2.53;;;2.33;;
15049;SDS011;7622;42.724;23.250;2022-09-21T03:15:58;2.83;;;2.43;;
15049;SDS011;7622;42.724;23.250;2022-09-21T03:18:27;2.03;;;1.93;;
15049;SDS011;7622;42.724;23.250;2022-09-21T03:20:54;2.30;;;2.10;;
15049;SDS011;7622;42.724;23.250;2022-09-21T03:23:21;2.40;;;2.20;;
15049;SDS011;7622;42.724;23.250;2022-09-21T03:25:48;2.60;;;2.40;;
15049;SDS011;7622;42.724;23.250;2022-09-21T03:28:16;3.73;;;2.63;;
15049;SDS011;7622;42.724;23.250;2022-09-21T03:30:44;2.20;;;2.10;;
15049;SDS011;7622;42.724;23.250;2022-09-21T03:33:11;2.80;;;2.60;;
15049;SDS011;7622;42.724;23.250;2022-09-21T03:35:42;2.33;;;2.13;;
15049;SDS011;7622;42.724;23.250;2022-09-21T03:38:11;2.70;;;2.50;;
15049;SDS011;7622;42.724;23.250;2022-09-21T03:40:38;2.90;;;2.50;;
15049;SDS011;7622;42.724;23.250;2022-09-21T03:43:04;2.40;;;2.20;;
15049;SDS011;7622;42.724;23.250;2022-09-21T03:45:32;2.73;;;2.17;;
15049;SDS011;7622;42.724;23.250;2022-09-21T03:48:01;2.67;;;2.47;;
15049;SDS011;7622;42.724;23.250;2022-09-21T03:50:30;2.00;;;1.90;;
15049;SDS011;7622;42.724;23.250;2022-09-21T03:52:59;4.83;;;2.33;;
15049;SDS011;7622;42.724;23.250;2022-09-21T03:55:26;5.63;;;2.80;;
15049;SDS011;7622;42.724;23.250;2022-09-21T03:57:54;3.57;;;2.47;;
15049;SDS011;7622;42.724;23.250;2022-09-21T04:00:20;4.47;;;2.30;;
15049;SDS011;7622;42.724;23.250;2022-09-21T04:02:47;3.47;;;2.30;;
15049;SDS011;7622;42.724;23.250;2022-09-21T04:05:14;2.80;;;2.40;;
15049;SDS011;7622;42.724;23.250;2022-09-21T04:07:42;4.37;;;2.40;;
15049;SDS011;7622;42.724;23.250;2022-09-21T04:10:12;16.00;;;2.83;;
15049;SDS011;7622;42.724;23.250;2022-09-21T04:12:41;7.03;;;2.73;;
15049;SDS011;7622;42.724;23.250;2022-09-21T04:15:08;4.23;;;2.93;;
15049;SDS011;7622;42.724;23.250;2022-09-21T04:17:36;7.53;;;3.07;;
15049;SDS011;7622;42.724;23.250;2022-09-21T04:20:03;2.97;;;2.77;;
15049;SDS011;7622;42.724;23.250;2022-09-21T04:22:30;5.87;;;2.63;;
15049;SDS011;7622;42.724;23.250;2022-09-21T04:24:57;4.40;;;2.50;;
15049;SDS011;7622;42.724;23.250;2022-09-21T04:27:26;14.60;;;3.20;;
15049;SDS011;7622;42.724;23.250;2022-09-21T04:29:53;5.13;;;2.83;;
15049;SDS011;7622;42.724;23.250;2022-09-21T04:32:20;2.83;;;2.57;;
15049;SDS011;7622;42.724;23.250;2022-09-21T04:34:47;2.43;;;2.23;;
15049;SDS011;7622;42.724;23.250;2022-09-21T04:37:13;4.37;;;2.40;;
15049;SDS011;7622;42.724;23.250;2022-09-21T04:39:40;3.40;;;2.50;;
15049;SDS011;7622;42.724;23.250;2022-09-21T04:42:07;4.87;;;2.97;;
15049;SDS011;7622;42.724;23.250;2022-09-21T04:44:36;17.03;;;3.57;;
15049;SDS011;7622;42.724;23.250;2022-09-21T04:47:03;18.10;;;3.20;;
15049;SDS011;7622;42.724;23.250;2022-09-21T04:49:30;5.47;;;3.30;;
15049;SDS011;7622;42.724;23.250;2022-09-21T04:51:57;9.80;;;3.13;;
15049;SDS011;7622;42.724;23.250;2022-09-21T04:54:24;5.63;;;2.70;;
15049;SDS011;7622;42.724;23.250;2022-09-21T04:56:51;3.33;;;3.00;;
15049;SDS011;7622;42.724;23.250;2022-09-21T04:59:18;4.60;;;3.27;;
15049;SDS011;7622;42.724;23.250;2022-09-21T05:01:46;10.20;;;3.43;;
15049;SDS011;7622;42.724;23.250;2022-09-21T05:04:13;8.23;;;2.80;;
15049;SDS011;7622;42.724;23.250;2022-09-21T05:06:40;12.90;;;3.80;;
15049;SDS011;7622;42.724;23.250;2022-09-21T05:09:07;9.80;;;3.87;;
15049;SDS011;7622;42.724;23.250;2022-09-21T05:11:52;13.70;;;3.83;;
15049;SDS011;7622;42.724;23.250;2022-09-21T05:14:18;10.17;;;3.30;;
15049;SDS011;7622;42.724;23.250;2022-09-21T05:16:46;8.80;;;2.90;;
15049;SDS011;7622;42.724;23.250;2022-09-21T05:19:13;3.90;;;3.10;;
15049;SDS011;7622;42.724;23.250;2022-09-21T05:21:40;4.73;;;3.30;;
15049;SDS011;7622;42.724;23.250;2022-09-21T05:24:07;4.87;;;2.90;;
15049;SDS011;7622;42.724;23.250;2022-09-21T05:26:34;7.00;;;3.00;;
15049;SDS011;7622;42.724;23.250;2022-09-21T05:29:01;9.77;;;5.33;;
15049;SDS011;7622;42.724;23.250;2022-09-21T05:31:34;7.23;;;4.60;;
15049;SDS011;7622;42.724;23.250;2022-09-21T05:34:10;8.73;;;4.47;;
15049;SDS011;7622;42.724;23.250;2022-09-21T05:36:51;11.07;;;3.37;;
15049;SDS011;7622;42.724;23.250;2022-09-21T05:39:26;14.63;;;3.13;;
15049;SDS011;7622;42.724;23.250;2022-09-21T05:41:53;11.37;;;3.60;;
15049;SDS011;7622;42.724;23.250;2022-09-21T05:44:20;7.37;;;3.20;;
15049;SDS011;7622;42.724;23.250;2022-09-21T05:46:49;2.90;;;2.70;;
15049;SDS011;7622;42.724;23.250;2022-09-21T05:49:27;5.60;;;3.10;;
15049;SDS011;7622;42.724;23.250;2022-09-21T05:52:02;4.43;;;2.90;;
15049;SDS011;7622;42.724;23.250;2022-09-21T05:54:38;6.43;;;3.20;;
15049;SDS011;7622;42.724;23.250;2022-09-21T05:57:16;3.23;;;2.90;;
15049;SDS011;7622;42.724;23.250;2022-09-21T05:59:54;3.63;;;3.17;;
15049;SDS011;7622;42.724;23.250;2022-09-21T06:02:34;3.33;;;3.10;;
15049;SDS011;7622;42.724;23.250;2022-09-21T06:05:16;5.40;;;3.70;;
15049;SDS011;7622;42.724;23.250;2022-09-21T06:07:43;3.73;;;3.53;;
15049;SDS011;7622;42.724;23.250;2022-09-21T06:10:10;4.10;;;2.90;;
15049;SDS011;7622;42.724;23.250;2022-09-21T06:12:38;4.03;;;3.20;;
15049;SDS011;7622;42.724;23.250;2022-09-21T06:15:06;3.13;;;2.83;;
15049;SDS011;7622;42.724;23.250;2022-09-21T06:17:36;6.83;;;3.27;;
15049;SDS011;7622;42.724;23.250;2022-09-21T06:20:03;9.07;;;3.20;;
15049;SDS011;7622;42.724;23.250;2022-09-21T06:22:32;4.07;;;3.10;;
15049;SDS011;7622;42.724;23.250;2022-09-21T06:24:59;7.17;;;3.33;;
15049;SDS011;7622;42.724;23.250;2022-09-21T06:27:26;4.43;;;4.00;;
15049;SDS011;7622;42.724;23.250;2022-09-21T06:29:53;7.60;;;3.57;;
15049;SDS011;7622;42.724;23.250;2022-09-21T06:32:20;5.40;;;3.33;;
15049;SDS011;7622;42.724;23.250;2022-09-21T06:34:47;7.60;;;3.90;;
15049;SDS011;7622;42.724;23.250;2022-09-21T06:37:14;5.97;;;3.37;;
15049;SDS011;7622;42.724;23.250;2022-09-21T06:39:42;10.33;;;4.50;;
15049;SDS011;7622;42.724;23.250;2022-09-21T06:42:09;5.23;;;3.40;;
15049;SDS011;7622;42.724;23.250;2022-09-21T06:44:36;6.90;;;3.50;;
15049;SDS011;7622;42.724;23.250;2022-09-21T06:47:02;4.70;;;2.80;;
15049;SDS011;7622;42.724;23.250;2022-09-21T06:49:29;12.80;;;3.30;;
15049;SDS011;7622;42.724;23.250;2022-09-21T06:51:56;3.90;;;2.90;;
15049;SDS011;7622;42.724;23.250;2022-09-21T06:54:23;5.10;;;3.27;;
15049;SDS011;7622;42.724;23.250;2022-09-21T06:56:51;4.27;;;3.20;;
15049;SDS011;7622;42.724;23.250;2022-09-21T06:59:19;3.97;;;3.60;;
15049;SDS011;7622;42.724;23.250;2022-09-21T07:01:45;3.37;;;2.73;;
15049;SDS011;7622;42.724;23.250;2022-09-21T07:04:12;4.70;;;4.30;;
15049;SDS011;7622;42.724;23.250;2022-09-21T07:06:39;3.77;;;3.47;;
15049;SDS011;7622;42.724;23.250;2022-09-21T07:09:05;13.27;;;4.70;;
15049;SDS011;7622;42.724;23.250;2022-09-21T07:11:32;6.67;;;3.03;;
15049;SDS011;7622;42.724;23.250;2022-09-21T07:14:00;3.87;;;3.10;;
15049;SDS011;7622;42.724;23.250;2022-09-21T07:16:28;11.67;;;4.40;;
15049;SDS011;7622;42.724;23.250;2022-09-21T07:18:55;12.67;;;4.03;;
15049;SDS011;7622;42.724;23.250;2022-09-21T07:21:21;8.40;;;4.90;;
15049;SDS011;7622;42.724;23.250;2022-09-21T07:23:48;7.87;;;3.33;;
15049;SDS011;7622;42.724;23.250;2022-09-21T07:26:15;7.83;;;3.50;;
15049;SDS011;7622;42.724;23.250;2022-09-21T07:28:42;2.67;;;2.40;;
15049;SDS011;7622;42.724;23.250;2022-09-21T07:31:11;10.87;;;3.40;;
15049;SDS011;7622;42.724;23.250;2022-09-21T07:33:39;5.70;;;3.03;;
15049;SDS011;7622;42.724;23.250;2022-09-21T07:36:06;9.23;;;2.53;;
15049;SDS011;7622;42.724;23.250;2022-09-21T07:38:35;8.73;;;2.10;;
15049;SDS011;7622;42.724;23.250;2022-09-21T07:41:03;3.93;;;2.77;;
15049;SDS011;7622;42.724;23.250;2022-09-21T07:43:30;10.00;;;2.80;;
15049;SDS011;7622;42.724;23.250;2022-09-21T07:45:57;5.57;;;2.60;;
15049;SDS011;7622;42.724;23.250;2022-09-21T07:48:27;3.60;;;2.73;;
15049;SDS011;7622;42.724;23.250;2022-09-21T07:50:58;12.43;;;2.60;;
15049;SDS011;7622;42.724;23.250;2022-09-21T07:53:28;8.43;;;3.47;;
15049;SDS011;7622;42.724;23.250;2022-09-21T07:55:59;8.77;;;3.53;;
15049;SDS011;7622;42.724;23.250;2022-09-21T07:58:26;7.80;;;3.23;;
15049;SDS011;7622;42.724;23.250;2022-09-21T08:01:10;7.83;;;2.87;;
15049;SDS011;7622;42.724;23.250;2022-09-21T08:03:38;6.00;;;2.37;;
15049;SDS011;7622;42.724;23.250;2022-09-21T08:06:05;5.27;;;2.00;;
15049;SDS011;7622;42.724;23.250;2022-09-21T08:08:33;1.97;;;1.87;;
15049;SDS011;7622;42.724;23.250;2022-09-21T08:11:03;3.50;;;1.93;;
15049;SDS011;7622;42.724;23.250;2022-09-21T08:13:31;4.20;;;2.80;;
15049;SDS011;7622;42.724;23.250;2022-09-21T08:15:58;3.47;;;2.90;;
15049;SDS011;7622;42.724;23.250;2022-09-21T08:18:25;9.70;;;3.80;;
15049;SDS011;7622;42.724;23.250;2022-09-21T08:20:53;6.23;;;2.70;;
15049;SDS011;7622;42.724;23.250;2022-09-21T08:23:21;2.57;;;2.37;;
15049;SDS011;7622;42.724;23.250;2022-09-21T08:25:48;19.93;;;3.57;;
15049;SDS011;7622;42.724;23.250;2022-09-21T08:28:15;6.77;;;3.07;;
15049;SDS011;7622;42.724;23.250;2022-09-21T08:30:42;6.30;;;2.40;;
15049;SDS011;7622;42.724;23.250;2022-09-21T08:33:09;3.53;;;3.23;;
15049;SDS011;7622;42.724;23.250;2022-09-21T08:35:36;2.73;;;2.00;;
15049;SDS011;7622;42.724;23.250;2022-09-21T08:38:04;2.90;;;2.67;;
15049;SDS011;7622;42.724;23.250;2022-09-21T08:40:31;1.97;;;1.87;;
15049;SDS011;7622;42.724;23.250;2022-09-21T08:42:59;4.00;;;1.70;;
15049;SDS011;7622;42.724;23.250;2022-09-21T08:45:31;16.07;;;2.83;;
15049;SDS011;7622;42.724;23.250;2022-09-21T08:48:01;8.80;;;3.23;;
15049;SDS011;7622;42.724;23.250;2022-09-21T08:50:36;3.83;;;2.13;;
15049;SDS011;7622;42.724;23.250;2022-09-21T08:53:10;1.73;;;1.63;;
15049;SDS011;7622;42.724;23.250;2022-09-21T08:55:41;5.13;;;2.33;;
15049;SDS011;7622;42.724;23.250;2022-09-21T08:58:10;9.53;;;3.33;;
15049;SDS011;7622;42.724;23.250;2022-09-21T09:00:47;3.70;;;1.80;;
15049;SDS011;7622;42.724;23.250;2022-09-21T09:06:12;7.67;;;2.40;;
15049;SDS011;7622;42.724;23.250;2022-09-21T09:08:52;8.67;;;2.13;;
15049;SDS011;7622;42.724;23.250;2022-09-21T09:11:33;3.30;;;1.90;;
15049;SDS011;7622;42.724;23.250;2022-09-21T09:14:13;5.13;;;1.90;;
15049;SDS011;7622;42.724;23.250;2022-09-21T09:16:52;1.63;;;1.53;;
15049;SDS011;7622;42.724;23.250;2022-09-21T09:19:37;4.10;;;2.00;;
15049;SDS011;7622;42.724;23.250;2022-09-21T09:22:11;1.70;;;1.60;;
15049;SDS011;7622;42.724;23.250;2022-09-21T09:24:44;4.40;;;1.70;;
15049;SDS011;7622;42.724;23.250;2022-09-21T09:27:15;8.80;;;1.77;;
15049;SDS011;7622;42.724;23.250;2022-09-21T09:29:49;3.83;;;1.50;;
15049;SDS011;7622;42.724;23.250;2022-09-21T09:32:26;2.00;;;1.53;;
15049;SDS011;7622;42.724;23.250;2022-09-21T09:35:00;2.20;;;1.73;;
15049;SDS011;7622;42.724;23.250;2022-09-21T09:37:31;1.53;;;1.43;;
15049;SDS011;7622;42.724;23.250;2022-09-21T09:40:03;60.03;;;5.00;;
15049;SDS011;7622;42.724;23.250;2022-09-21T09:42:39;9.87;;;2.63;;
15049;SDS011;7622;42.724;23.250;2022-09-21T09:45:23;2.47;;;2.20;;
15049;SDS011;7622;42.724;23.250;2022-09-21T09:48:01;2.37;;;1.50;;
15049;SDS011;7622;42.724;23.250;2022-09-21T09:50:40;10.53;;;2.20;;
15049;SDS011;7622;42.724;23.250;2022-09-21T09:53:08;5.60;;;1.70;;
15049;SDS011;7622;42.724;23.250;2022-09-21T09:55:39;1.90;;;1.60;;
15049;SDS011;7622;42.724;23.250;2022-09-21T09:58:15;5.27;;;1.80;;
15049;SDS011;7622;42.724;23.250;2022-09-21T10:00:44;2.63;;;2.30;;
15049;SDS011;7622;42.724;23.250;2022-09-21T10:03:14;4.97;;;2.43;;
15049;SDS011;7622;42.724;23.250;2022-09-21T10:05:43;3.30;;;1.40;;
15049;SDS011;7622;42.724;23.250;2022-09-21T10:08:27;1.50;;;1.40;;
15049;SDS011;7622;42.724;23.250;2022-09-21T10:10:57;30.57;;;2.93;;
15049;SDS011;7622;42.724;23.250;2022-09-21T10:13:25;2.50;;;1.30;;
15049;SDS011;7622;42.724;23.250;2022-09-21T10:15:54;2.30;;;1.40;;
15049;SDS011;7622;42.724;23.250;2022-09-21T10:18:24;7.37;;;1.40;;
15049;SDS011;7622;42.724;23.250;2022-09-21T10:20:56;2.90;;;1.70;;
15049;SDS011;7622;42.724;23.250;2022-09-21T10:23:26;1.50;;;1.03;;
15049;SDS011;7622;42.724;23.250;2022-09-21T10:26:00;1.27;;;1.00;;
15049;SDS011;7622;42.724;23.250;2022-09-21T10:28:30;0.70;;;0.70;;
15049;SDS011;7622;42.724;23.250;2022-09-21T10:31:07;2.23;;;0.90;;
15049;SDS011;7622;42.724;23.250;2022-09-21T10:33:47;3.37;;;1.30;;
15049;SDS011;7622;42.724;23.250;2022-09-21T10:36:27;5.97;;;1.57;;
15049;SDS011;7622;42.724;23.250;2022-09-21T10:38:57;1.50;;;1.30;;
15049;SDS011;7622;42.724;23.250;2022-09-21T10:41:47;1.10;;;0.83;;
15049;SDS011;7622;42.724;23.250;2022-09-21T10:44:18;1.10;;;0.80;;
15049;SDS011;7622;42.724;23.250;2022-09-21T10:46:47;1.90;;;1.20;;
15049;SDS011;7622;42.724;23.250;2022-09-21T10:49:16;4.20;;;1.37;;
15049;SDS011;7622;42.724;23.250;2022-09-21T10:51:47;12.30;;;1.60;;
15049;SDS011;7622;42.724;23.250;2022-09-21T10:54:17;8.43;;;1.70;;
15049;SDS011;7622;42.724;23.250;2022-09-21T10:56:53;4.70;;;1.33;;
15049;SDS011;7622;42.724;23.250;2022-09-21T10:59:24;2.00;;;1.17;;
15049;SDS011;7622;42.724;23.250;2022-09-21T11:01:53;3.50;;;0.80;;
15049;SDS011;7622;42.724;23.250;2022-09-21T11:04:23;4.23;;;1.00;;
15049;SDS011;7622;42.724;23.250;2022-09-21T11:06:56;3.50;;;1.20;;
15049;SDS011;7622;42.724;23.250;2022-09-21T11:09:31;1.40;;;0.70;;
15049;SDS011;7622;42.724;23.250;2022-09-21T11:12:05;2.40;;;0.90;;
15049;SDS011;7622;42.724;23.250;2022-09-21T11:14:43;0.90;;;0.90;;
15049;SDS011;7622;42.724;23.250;2022-09-21T11:17:19;1.23;;;1.20;;
15049;SDS011;7622;42.724;23.250;2022-09-21T11:19:54;3.27;;;1.30;;
15049;SDS011;7622;42.724;23.250;2022-09-21T11:22:31;2.87;;;1.30;;
15049;SDS011;7622;42.724;23.250;2022-09-21T11:25:11;1.50;;;1.40;;
15049;SDS011;7622;42.724;23.250;2022-09-21T11:27:52;1.40;;;1.30;;
15049;SDS011;7622;42.724;23.250;2022-09-21T11:30:25;3.27;;;1.40;;
15049;SDS011;7622;42.724;23.250;2022-09-21T11:33:09;7.83;;;1.47;;
15049;SDS011;7622;42.724;23.250;2022-09-21T11:35:53;3.50;;;1.37;;
15049;SDS011;7622;42.724;23.250;2022-09-21T11:38:32;4.30;;;1.27;;
15049;SDS011;7622;42.724;23.250;2022-09-21T11:41:12;0.80;;;0.80;;
15049;SDS011;7622;42.724;23.250;2022-09-21T11:44:04;9.70;;;1.50;;
15049;SDS011;7622;42.724;23.250;2022-09-21T11:46:46;0.77;;;0.77;;
15049;SDS011;7622;42.724;23.250;2022-09-21T11:52:29;5.70;;;1.13;;
15049;SDS011;7622;42.724;23.250;2022-09-21T11:58:09;1.70;;;0.70;;
15049;SDS011;7622;42.724;23.250;2022-09-21T12:00:46;6.37;;;0.97;;
15049;SDS011;7622;42.724;23.250;2022-09-21T12:03:39;0.50;;;0.50;;
15049;SDS011;7622;42.724;23.250;2022-09-21T12:06:24;1.93;;;0.70;;
15049;SDS011;7622;42.724;23.250;2022-09-21T12:12:12;2.03;;;0.60;;
15049;SDS011;7622;42.724;23.250;2022-09-21T12:14:47;1.00;;;0.90;;
15049;SDS011;7622;42.724;23.250;2022-09-21T12:17:27;1.47;;;0.90;;
15049;SDS011;7622;42.724;23.250;2022-09-21T12:20:05;3.90;;;0.87;;
15049;SDS011;7622;42.724;23.250;2022-09-21T12:22:37;1.83;;;1.17;;
15049;SDS011;7622;42.724;23.250;2022-09-21T12:25:11;9.13;;;2.03;;
15049;SDS011;7622;42.724;23.250;2022-09-21T12:27:41;2.73;;;0.93;;
15049;SDS011;7622;42.724;23.250;2022-09-21T12:30:13;1.63;;;1.10;;
15049;SDS011;7622;42.724;23.250;2022-09-21T12:32:45;4.23;;;1.73;;
15049;SDS011;7622;42.724;23.250;2022-09-21T12:35:18;0.70;;;0.70;;
15049;SDS011;7622;42.724;23.250;2022-09-21T12:37:51;3.43;;;1.00;;
15049;SDS011;7622;42.724;23.250;2022-09-21T12:40:22;13.23;;;1.57;;
15049;SDS011;7622;42.724;23.250;2022-09-21T12:42:55;9.03;;;1.60;;
15049;SDS011;7622;42.724;23.250;2022-09-21T12:45:28;0.50;;;0.50;;
15049;SDS011;7622;42.724;23.250;2022-09-21T12:48:01;1.27;;;1.00;;
15049;SDS011;7622;42.724;23.250;2022-09-21T12:50:34;1.60;;;0.90;;
15049;SDS011;7622;42.724;23.250;2022-09-21T12:53:05;1.57;;;0.80;;
15049;SDS011;7622;42.724;23.250;2022-09-21T12:55:39;1.10;;;1.10;;
15049;SDS011;7622;42.724;23.250;2022-09-21T12:58:15;15.57;;;2.53;;
15049;SDS011;7622;42.724;23.250;2022-09-21T13:00:56;1.60;;;1.50;;
15049;SDS011;7622;42.724;23.250;2022-09-21T13:03:34;1.63;;;0.80;;
15049;SDS011;7622;42.724;23.250;2022-09-21T13:06:13;6.67;;;1.40;;
15049;SDS011;7622;42.724;23.250;2022-09-21T13:08:55;2.30;;;0.90;;
15049;SDS011;7622;42.724;23.250;2022-09-21T13:11:26;10.60;;;2.37;;
15049;SDS011;7622;42.724;23.250;2022-09-21T13:13:55;2.33;;;1.07;;
15049;SDS011;7622;42.724;23.250;2022-09-21T13:16:27;1.07;;;0.90;;
15049;SDS011;7622;42.724;23.250;2022-09-21T13:18:58;1.47;;;1.07;;
15049;SDS011;7622;42.724;23.250;2022-09-21T13:21:28;1.67;;;1.20;;
15049;SDS011;7622;42.724;23.250;2022-09-21T13:23:56;11.30;;;2.00;;
15049;SDS011;7622;42.724;23.250;2022-09-21T13:26:29;20.53;;;3.10;;
15049;SDS011;7622;42.724;23.250;2022-09-21T13:32:03;1.70;;;1.60;;
15049;SDS011;7622;42.724;23.250;2022-09-21T13:34:48;1.60;;;1.50;;
15049;SDS011;7622;42.724;23.250;2022-09-21T13:37:26;1.60;;;1.50;;
15049;SDS011;7622;42.724;23.250;2022-09-21T13:43:15;1.77;;;1.63;;
15049;SDS011;7622;42.724;23.250;2022-09-21T13:45:54;2.00;;;1.90;;
15049;SDS011;7622;42.724;23.250;2022-09-21T13:48:23;3.33;;;1.70;;
15049;SDS011;7622;42.724;23.250;2022-09-21T13:50:56;3.43;;;1.73;;
15049;SDS011;7622;42.724;23.250;2022-09-21T13:53:27;2.10;;;1.67;;
15049;SDS011;7622;42.724;23.250;2022-09-21T13:55:59;4.63;;;2.23;;
15049;SDS011;7622;42.724;23.250;2022-09-21T13:58:33;7.40;;;1.97;;
15049;SDS011;7622;42.724;23.250;2022-09-21T14:01:02;19.83;;;2.77;;
15049;SDS011;7622;42.724;23.250;2022-09-21T14:03:32;4.50;;;2.10;;
15049;SDS011;7622;42.724;23.250;2022-09-21T14:06:04;4.30;;;2.43;;
15049;SDS011;7622;42.724;23.250;2022-09-21T14:08:34;7.17;;;2.13;;
15049;SDS011;7622;42.724;23.250;2022-09-21T14:11:03;1.27;;;1.20;;
15049;SDS011;7622;42.724;23.250;2022-09-21T14:13:34;5.80;;;1.80;;
15049;SDS011;7622;42.724;23.250;2022-09-21T14:18:50;3.40;;;1.10;;
15049;SDS011;7622;42.724;23.250;2022-09-21T14:21:19;1.10;;;1.00;;
15049;SDS011;7622;42.724;23.250;2022-09-21T14:26:48;2.57;;;1.57;;
15049;SDS011;7622;42.724;23.250;2022-09-21T14:29:20;2.30;;;2.10;;
15049;SDS011;7622;42.724;23.250;2022-09-21T14:31:51;3.17;;;2.20;;
15049;SDS011;7622;42.724;23.250;2022-09-21T14:34:22;2.40;;;2.30;;
15049;SDS011;7622;42.724;23.250;2022-09-21T14:36:53;3.30;;;2.43;;
15049;SDS011;7622;42.724;23.250;2022-09-21T14:39:24;2.23;;;2.10;;
15049;SDS011;7622;42.724;23.250;2022-09-21T14:41:57;4.73;;;2.57;;
15049;SDS011;7622;42.724;23.250;2022-09-21T14:44:29;1.93;;;1.83;;
15049;SDS011;7622;42.724;23.250;2022-09-21T14:47:04;2.07;;;1.97;;
15049;SDS011;7622;42.724;23.250;2022-09-21T14:52:43;4.00;;;1.90;;
15049;SDS011;7622;42.724;23.250;2022-09-21T14:55:24;2.40;;;1.90;;
15049;SDS011;7622;42.724;23.250;2022-09-21T14:58:04;2.50;;;1.47;;
15049;SDS011;7622;42.724;23.250;2022-09-21T15:00:43;1.60;;;1.50;;
15049;SDS011;7622;42.724;23.250;2022-09-21T15:06:21;1.70;;;1.60;;
15049;SDS011;7622;42.724;23.250;2022-09-21T15:09:23;2.53;;;1.70;;
15049;SDS011;7622;42.724;23.250;2022-09-21T15:12:18;4.17;;;2.00;;
15049;SDS011;7622;42.724;23.250;2022-09-21T15:14:50;2.47;;;2.23;;
15049;SDS011;7622;42.724;23.250;2022-09-21T15:17:24;19.63;;;3.10;;
15049;SDS011;7622;42.724;23.250;2022-09-21T15:19:56;7.50;;;2.50;;
15049;SDS011;7622;42.724;23.250;2022-09-21T15:22:25;3.40;;;2.60;;
15049;SDS011;7622;42.724;23.250;2022-09-21T15:24:54;2.97;;;2.77;;
15049;SDS011;7622;42.724;23.250;2022-09-21T15:27:23;2.53;;;2.23;;
15049;SDS011;7622;42.724;23.250;2022-09-21T15:29:57;3.10;;;2.90;;
15049;SDS011;7622;42.724;23.250;2022-09-21T15:32:29;3.20;;;2.90;;
15049;SDS011;7622;42.724;23.250;2022-09-21T15:35:00;9.63;;;3.23;;
15049;SDS011;7622;42.724;23.250;2022-09-21T15:37:33;2.70;;;2.50;;
15049;SDS011;7622;42.724;23.250;2022-09-21T15:40:04;7.10;;;2.00;;
15049;SDS011;7622;42.724;23.250;2022-09-21T15:42:33;3.73;;;2.00;;